• Join FlightAware (Why Join?)
  • Login
  • US Flag 
02:13AM EDT


 

Airport Tracker/Info


-or-


 

Live Flight TrackerFlight Track Log ✈ N312BL ✈ 18-Sep-2013 ✈ KMRH - KSOP

Flight Track Log - Related Links

Times and Time Zones

All times are in EDT time to prevent confusion due to time zone crossing. See the N312BL flight status page for this flight to view local times or setup timezone preferences in your user account.

Time Position Orientation Groundspeed Altitude Reporting Facility
EDT Latitude Longitude Course Direction KTS MPH feet Rate Location/Type
05:07PM 34.8500 -77.0069 283° West 208 239 12,600  Level Washington Center
05:08PM 34.8658 -77.0678 288° West 213 245 14,200 1,680 Climbing Washington Center
05:09PM 34.8116 -77.0588 287° West  Level Estimated
05:09PM 34.8839 -77.1367 288° West 202 232 16,000  Level Washington Center
05:10PM 34.8245 -77.1253 283° West  Level Estimated
05:10PM 34.8703 -77.2147 258° West 208 239 16,000  Level Washington Center
05:11PM 34.8370 -77.1918 283° West  Level FlightAware Approximate
05:11PM 34.8500 -77.3081 255° West 251 289 16,000  Level Washington Center
05:12PM 34.8495 -77.2584 283° West  Level FlightAware Approximate
05:12PM 34.8319 -77.4064 257° West 288 331 16,000  Level Washington Center
05:13PM 34.8139 -77.4969 256° West 301 346 15,900 -60 Descending Washington Center
05:14PM 34.7956 -77.6003 258° West 313 360 15,900  Level Washington Center
05:15PM 34.7958 -77.7039 270° West 318 366 15,900  Level Washington Center
05:16PM 34.8106 -77.8056 280° West 307 353 15,900  Level Washington Center
05:17PM 34.8189 -77.9169 275° West 307 353 16,000  Climbing Washington Center
05:18PM 34.8294 -78.0186 277° West 313 360 16,000  Level Washington Center
05:19PM 34.8419 -78.1200 279° West 313 360 16,000  Level Washington Center
05:20PM 34.8503 -78.2267 275° West 313 360 16,000  Level Washington Center
05:21PM 34.8625 -78.3283 278° West 313 360 16,000 -540 Level Washington Center
05:22PM 34.8703 -78.4350 275° West 313 360 15,000 -1,140 Descending Washington Center
05:23PM 34.8825 -78.5417 278° West 313 360 13,700 -1,380 Descending Washington Center
05:24PM 34.8942 -78.6508 277° West 318 366 12,300 -1,380 Descending Washington Center
05:25PM 34.9061 -78.7553 278° West 318 366 11,000 -1,200 Descending Washington Center
05:26PM 34.9142 -78.8492 276° West 310 357 10,000 -1,200 Descending Washington Center
05:27PM 34.9239 -78.9508 277° West 292 336 8,600 -1,020 Descending Washington Center
05:28PM 34.9297 -79.0347 275° West 280 322 8,000 -360 Descending Washington Center
05:29PM 34.9394 -79.1314 277° West 275 316 8,000  Level Washington Center
05:30PM 34.9494 -79.2131 279° West 262 302 8,000  Level Washington Center
05:31PM 34.9575 -79.2969 277° West 256 295 8,000 -420 Level Washington Center
05:32PM 34.9717 -79.3761 282° West 256 295 7,200 -1,020 Descending Washington Center
05:33PM 35.0375 -79.4022 342° North 214 246 6,000 -1,200 Descending Washington Center
05:35PM 35.1173 -79.3833 North  Level FlightAware Approximate